Time;durP1;ratioP1;P1;durP2;ratioP2;P2;SDS_P1;SDS_P2;PMS_P1;PMS_P2;Temp;Humidity;BMP_temperature;BMP_pressure;BME280_temperature;BME280_humidity;BME280_pressure;Samples;Min_cycle;Max_cycle;Signal;HPM_P1;HPM_P2
2024/03/14 00:02:25;;;;;;;5.95;4.93;;;11.70;99.90;;;;;;5034812;28;20515;-72
2024/03/14 00:04:51;;;;;;;5.80;4.93;;;11.70;99.90;;;;;;5035542;28;20124;-72
2024/03/14 00:07:17;;;;;;;7.32;5.63;;;11.70;99.90;;;;;;5035088;28;20110;-72
2024/03/14 00:09:43;;;;;;;14.15;5.93;;;11.70;99.90;;;;;;5016589;28;20093;-72
2024/03/14 00:12:10;;;;;;;8.30;6.07;;;11.80;99.90;;;;;;5033913;28;20108;-72
2024/03/14 00:14:38;;;;;;;6.72;5.20;;;11.70;99.90;;;;;;5015874;28;20021;-72
2024/03/14 00:17:04;;;;;;;11.38;4.65;;;11.70;99.90;;;;;;5015442;28;20017;-72
2024/03/14 00:19:29;;;;;;;5.47;4.45;;;11.70;99.90;;;;;;5033510;28;20072;-72
2024/03/14 00:21:56;;;;;;;8.88;5.00;;;11.70;99.90;;;;;;5016243;28;20025;-72
2024/03/14 00:24:22;;;;;;;7.90;5.53;;;11.80;99.90;;;;;;5017397;28;20052;-72
2024/03/14 00:26:47;;;;;;;10.25;5.20;;;11.70;99.90;;;;;;5034744;28;20501;-72
2024/03/14 00:29:13;;;;;;;7.15;5.07;;;11.70;99.90;;;;;;5017348;28;20451;-72
2024/03/14 00:31:39;;;;;;;9.55;5.28;;;11.70;99.90;;;;;;5016463;28;20396;-71
2024/03/14 00:34:07;;;;;;;10.15;5.38;;;11.80;99.90;;;;;;5037402;28;20361;-71
2024/03/14 00:36:36;;;;;;;7.20;5.63;;;11.70;99.90;;;;;;5024300;28;20029;-72
2024/03/14 00:39:02;;;;;;;8.73;5.50;;;11.70;99.90;;;;;;5020991;28;20080;-72
2024/03/14 00:41:27;;;;;;;9.98;5.55;;;11.70;99.90;;;;;;5017483;28;20029;-72
2024/03/14 00:43:53;;;;;;;10.00;5.35;;;11.70;99.90;;;;;;5012431;28;20026;-72
2024/03/14 00:46:19;;;;;;;12.80;5.65;;;11.70;99.90;;;;;;5017877;28;20037;-73
2024/03/14 00:48:44;;;;;;;6.38;5.40;;;11.60;99.90;;;;;;5016802;28;20040;-72
2024/03/14 00:51:10;;;;;;;7.88;5.85;;;11.70;99.90;;;;;;5021895;28;20492;-71
2024/03/14 00:53:36;;;;;;;10.48;6.07;;;11.70;99.90;;;;;;5063353;22;20131;-68
2024/03/14 00:56:01;;;;;;;9.75;6.18;;;11.70;99.90;;;;;;5072223;28;20115;-68
2024/03/14 00:58:28;;;;;;;5.55;4.90;;;11.70;99.90;;;;;;5072118;28;20017;-69
2024/03/14 01:00:53;;;;;;;13.52;5.60;;;11.60;99.90;;;;;;5053441;28;20131;-68
2024/03/14 01:03:19;;;;;;;8.07;5.25;;;11.60;99.90;;;;;;5071687;28;20108;-68
2024/03/14 01:05:44;;;;;;;10.45;5.55;;;11.60;99.90;;;;;;5071487;28;20495;-69
2024/03/14 01:08:10;;;;;;;10.00;6.32;;;11.60;99.90;;;;;;5053318;28;20032;-69
2024/03/14 01:10:36;;;;;;;10.35;5.38;;;11.60;99.90;;;;;;5071040;28;20416;-69
2024/03/14 01:13:07;;;;;;;11.95;6.32;;;11.60;99.90;;;;;;5071466;28;20103;-68
2024/03/14 01:15:32;;;;;;;10.63;5.53;;;11.60;99.90;;;;;;5071518;28;20027;-69
2024/03/14 01:17:59;;;;;;;8.80;4.93;;;11.60;99.90;;;;;;5071193;28;20099;-68
2024/03/14 01:20:25;;;;;;;7.55;5.30;;;11.50;99.90;;;;;;5071198;28;20024;-68
2024/03/14 01:22:50;;;;;;;6.78;5.28;;;11.50;99.90;;;;;;5071123;28;20029;-68
2024/03/14 01:25:16;;;;;;;8.63;5.55;;;11.60;99.90;;;;;;5071199;28;20505;-68
2024/03/14 01:27:41;;;;;;;9.75;5.05;;;11.50;99.90;;;;;;5071305;28;20028;-69
2024/03/14 01:30:10;;;;;;;8.00;5.07;;;11.50;99.90;;;;;;5071005;28;20025;-69
2024/03/14 01:32:36;;;;;;;6.35;4.95;;;11.40;99.90;;;;;;5070626;28;20028;-68
2024/03/14 01:35:01;;;;;;;12.70;5.47;;;11.40;99.90;;;;;;5071411;28;20036;-69
2024/03/14 01:37:27;;;;;;;9.80;5.75;;;11.40;99.90;;;;;;5071067;28;20025;-68
2024/03/14 01:39:53;;;;;;;10.27;5.88;;;11.30;99.90;;;;;;5071035;28;20025;-69
2024/03/14 01:42:18;;;;;;;6.72;5.10;;;11.40;99.90;;;;;;5070967;28;20033;-69
2024/03/14 01:45:00;;;;;;;9.13;4.60;;;11.40;99.90;;;;;;5071027;28;20037;-69
2024/03/14 01:47:26;;;;;;;6.22;5.05;;;11.30;99.90;;;;;;5070880;28;20025;-68
2024/03/14 01:49:52;;;;;;;7.57;4.93;;;11.40;99.90;;;;;;5070604;28;20020;-69
2024/03/14 01:52:21;;;;;;;7.80;6.32;;;11.30;99.90;;;;;;5070594;28;20024;-68
2024/03/14 01:54:50;;;;;;;9.13;5.47;;;11.30;99.90;;;;;;5070687;28;20101;-68
2024/03/14 01:57:16;;;;;;;7.97;5.05;;;11.20;99.90;;;;;;5070796;28;20017;-68
2024/03/14 01:59:42;;;;;;;7.55;5.03;;;11.20;99.90;;;;;;5070556;28;20032;-68
2024/03/14 02:02:08;;;;;;;9.43;6.25;;;11.20;99.90;;;;;;5070405;28;20135;-69
2024/03/14 02:04:48;;;;;;;7.90;4.80;;;11.30;99.90;;;;;;5070806;28;20032;-68
2024/03/14 02:07:15;;;;;;;11.85;6.55;;;11.30;99.90;;;;;;5070742;28;20056;-69
2024/03/14 02:09:40;;;;;;;10.48;6.03;;;11.20;99.90;;;;;;5070598;28;20452;-69
2024/03/14 02:12:10;;;;;;;6.85;4.82;;;11.20;99.90;;;;;;5070529;28;20070;-69
2024/03/14 02:14:36;;;;;;;7.88;4.85;;;11.20;99.90;;;;;;5070763;28;20024;-68
2024/03/14 02:17:05;;;;;;;7.97;4.90;;;11.20;99.90;;;;;;5070537;28;20051;-70
2024/03/14 02:19:31;;;;;;;11.43;5.60;;;11.10;99.90;;;;;;5070546;28;20028;-69
2024/03/14 02:22:02;;;;;;;9.40;5.38;;;11.10;99.90;;;;;;5070162;28;20052;-70
2024/03/14 02:24:28;;;;;;;13.68;5.45;;;11.00;99.90;;;;;;5070636;28;20052;-69
2024/03/14 02:26:57;;;;;;;10.15;5.38;;;11.10;99.90;;;;;;5070566;28;20036;-69
2024/03/14 02:29:23;;;;;;;9.75;5.53;;;11.00;99.90;;;;;;5070569;28;20036;-68
2024/03/14 02:31:51;;;;;;;8.32;5.85;;;11.00;99.90;;;;;;5070240;28;20028;-68
2024/03/14 02:34:18;;;;;;;10.18;5.55;;;10.90;99.90;;;;;;5070207;28;20078;-69
2024/03/14 02:36:46;;;;;;;13.95;6.57;;;10.90;99.90;;;;;;5070556;28;20021;-69
2024/03/14 02:39:14;;;;;;;9.98;6.47;;;10.90;99.90;;;;;;5070352;28;20013;-68
2024/03/14 02:41:40;;;;;;;11.68;6.78;;;10.90;99.90;;;;;;5070017;28;20036;-70
2024/03/14 02:44:15;;;;;;;12.05;6.13;;;10.90;99.90;;;;;;5070260;28;20021;-69
2024/03/14 02:46:42;;;;;;;10.70;6.68;;;10.90;99.90;;;;;;5052372;28;20025;-68
2024/03/14 02:49:13;;;;;;;14.95;7.47;;;10.90;99.90;;;;;;5070509;28;20017;-69
2024/03/14 02:51:38;;;;;;;10.00;6.20;;;10.80;99.90;;;;;;5069667;28;20032;-69
2024/03/14 02:54:07;;;;;;;10.27;6.63;;;10.80;99.90;;;;;;5070163;28;20025;-68
2024/03/14 02:56:33;;;;;;;13.75;6.63;;;10.80;99.90;;;;;;5070405;28;20425;-68
2024/03/14 02:58:59;;;;;;;10.32;6.30;;;10.80;99.90;;;;;;5070427;28;20099;-69
2024/03/14 03:01:24;;;;;;;14.98;6.90;;;10.80;99.90;;;;;;5070073;28;20564;-69
2024/03/14 03:03:53;;;;;;;8.43;6.57;;;10.80;99.90;;;;;;5070214;28;20031;-68
2024/03/14 03:06:19;;;;;;;11.60;6.53;;;10.70;99.90;;;;;;5069993;28;20039;-69
2024/03/14 03:08:45;;;;;;;14.40;6.35;;;10.70;99.90;;;;;;5070114;28;20020;-68
2024/03/14 03:11:11;;;;;;;12.27;6.43;;;10.80;99.90;;;;;;5069738;28;20556;-68
2024/03/14 03:13:37;;;;;;;8.00;5.93;;;10.80;99.90;;;;;;5070045;28;20358;-68
2024/03/14 03:16:04;;;;;;;13.85;6.60;;;10.80;99.90;;;;;;5070004;28;20027;-69
2024/03/14 03:18:30;;;;;;;9.18;6.65;;;10.90;99.90;;;;;;5072288;28;20024;-69
2024/03/14 03:20:55;;;;;;;8.98;6.50;;;10.80;99.90;;;;;;5054873;28;20516;-68
2024/03/14 03:23:21;;;;;;;8.02;6.47;;;10.70;99.90;;;;;;5055179;28;20046;-68
2024/03/14 03:25:46;;;;;;;8.73;6.38;;;10.70;99.90;;;;;;5073249;28;20060;-68
2024/03/14 03:28:13;;;;;;;9.75;6.40;;;10.70;99.90;;;;;;5073570;28;20036;-68
2024/03/14 03:30:39;;;;;;;10.25;5.88;;;10.80;99.90;;;;;;5073019;28;20032;-68
2024/03/14 03:33:17;;;;;;;8.27;5.80;;;10.80;99.90;;;;;;5073338;28;20050;-68
2024/03/14 03:35:45;;;;;;;10.02;5.82;;;10.80;99.90;;;;;;5073061;28;20432;-68
2024/03/14 03:38:13;;;;;;;8.60;6.55;;;10.80;99.90;;;;;;5073115;28;20032;-67
2024/03/14 03:40:43;;;;;;;11.80;6.57;;;10.80;99.90;;;;;;5054635;28;20024;-68
2024/03/14 03:43:12;;;;;;;10.10;6.20;;;10.80;99.90;;;;;;5073135;28;20081;-67
2024/03/14 03:45:37;;;;;;;10.90;6.25;;;10.80;99.90;;;;;;5052954;28;20029;-68
2024/03/14 03:48:03;;;;;;;10.00;5.65;;;10.70;99.90;;;;;;5052836;28;20522;-68
2024/03/14 03:50:29;;;;;;;8.95;6.60;;;10.70;99.90;;;;;;5052647;28;20025;-68
2024/03/14 03:52:55;;;;;;;12.15;6.20;;;10.70;99.90;;;;;;5053077;28;20021;-68
2024/03/14 03:55:21;;;;;;;10.15;6.13;;;10.70;99.90;;;;;;5053057;28;20040;-68
2024/03/14 03:57:47;;;;;;;16.13;6.75;;;10.70;99.90;;;;;;5057306;28;20478;-67
2024/03/14 04:02:58;;;;;;;11.73;6.72;;;10.60;99.90;;;;;;5072734;28;20112;-68
2024/03/14 04:05:25;;;;;;;11.02;7.13;;;10.50;99.90;;;;;;5054862;28;20447;-68
2024/03/14 04:07:52;;;;;;;12.55;7.15;;;10.50;99.90;;;;;;5072720;28;20455;-68
2024/03/14 04:10:17;;;;;;;9.32;6.85;;;10.50;99.90;;;;;;5072360;28;20033;-67
2024/03/14 04:12:44;;;;;;;12.27;7.20;;;10.40;99.90;;;;;;5072317;28;20078;-67
2024/03/14 04:15:10;;;;;;;9.27;6.65;;;10.50;99.90;;;;;;5072453;28;20021;-67
2024/03/14 04:17:36;;;;;;;11.82;6.47;;;10.50;99.90;;;;;;5072333;28;20036;-68
2024/03/14 04:20:10;;;;;;;22.35;7.25;;;10.50;99.90;;;;;;5072094;28;20025;-69
2024/03/14 04:22:36;;;;;;;9.52;6.97;;;10.50;99.90;;;;;;5072156;28;20025;-68
2024/03/14 04:25:09;;;;;;;13.35;6.55;;;10.50;99.90;;;;;;5072334;28;20384;-68
2024/03/14 04:27:34;;;;;;;12.27;6.70;;;10.50;99.90;;;;;;5072280;28;20502;-69
2024/03/14 04:30:00;;;;;;;9.02;7.10;;;10.60;99.90;;;;;;5072681;28;20024;-69
2024/03/14 04:32:25;;;;;;;12.32;6.97;;;10.60;99.90;;;;;;5072299;28;20212;-68
2024/03/14 04:34:51;;;;;;;11.00;7.65;;;10.50;99.90;;;;;;5072690;28;20112;-69
2024/03/14 04:37:17;;;;;;;11.25;7.60;;;10.50;99.90;;;;;;5072342;28;20031;-68
2024/03/14 04:39:43;;;;;;;13.18;7.45;;;10.50;99.90;;;;;;5072173;28;20025;-68
2024/03/14 04:42:09;;;;;;;11.50;7.47;;;10.50;99.90;;;;;;5071798;28;20016;-68
2024/03/14 04:44:36;;;;;;;12.10;7.97;;;10.50;99.90;;;;;;5071884;28;20028;-69
2024/03/14 04:47:03;;;;;;;7.95;6.57;;;10.40;99.90;;;;;;5053815;28;20387;-68
2024/03/14 04:49:32;;;;;;;8.82;7.28;;;10.40;99.90;;;;;;5053415;28;20016;-68
2024/03/14 04:51:57;;;;;;;12.88;7.15;;;10.40;99.90;;;;;;5071355;28;20119;-69
2024/03/14 04:54:24;;;;;;;13.73;8.20;;;10.40;99.90;;;;;;5071452;28;20029;-68
2024/03/14 04:56:50;;;;;;;10.25;7.13;;;10.40;99.90;;;;;;5071550;28;20028;-68
2024/03/14 04:59:15;;;;;;;13.35;6.50;;;10.40;99.90;;;;;;5071567;28;20017;-68
2024/03/14 05:01:42;;;;;;;10.98;6.97;;;10.40;99.90;;;;;;5053478;28;20032;-68
2024/03/14 05:04:08;;;;;;;15.93;7.28;;;10.40;99.90;;;;;;5071492;28;20024;-69
2024/03/14 05:06:33;;;;;;;9.65;6.65;;;10.40;99.90;;;;;;5053261;28;20020;-70
2024/03/14 05:09:00;;;;;;;9.43;6.88;;;10.30;99.90;;;;;;5071326;28;20032;-68
2024/03/14 05:11:25;;;;;;;12.20;7.10;;;10.20;99.90;;;;;;5070780;28;20027;-69
2024/03/14 05:13:56;;;;;;;9.63;7.00;;;10.20;99.90;;;;;;5070808;28;20025;-68
2024/03/14 05:16:23;;;;;;;10.32;6.80;;;10.20;99.90;;;;;;5071363;28;20024;-69
2024/03/14 05:18:48;;;;;;;15.20;7.50;;;10.30;99.90;;;;;;5071094;28;20425;-69
2024/03/14 05:21:15;;;;;;;12.48;6.97;;;10.20;99.90;;;;;;5070770;28;20104;-68
2024/03/14 05:23:41;;;;;;;11.63;7.07;;;10.10;99.90;;;;;;5071121;28;20102;-69
2024/03/14 05:26:07;;;;;;;16.52;8.80;;;10.20;99.90;;;;;;5071249;28;20032;-69
2024/03/14 05:28:33;;;;;;;11.13;6.70;;;10.20;99.90;;;;;;5072162;28;20021;-69
2024/03/14 05:30:59;;;;;;;12.15;8.40;;;10.10;99.90;;;;;;5074902;28;20540;-69
2024/03/14 05:33:24;;;;;;;13.52;6.72;;;10.10;99.90;;;;;;5071870;28;20025;-69
2024/03/14 05:35:50;;;;;;;10.57;8.20;;;10.10;99.90;;;;;;5070958;28;20368;-69
2024/03/14 05:38:15;;;;;;;14.00;7.47;;;10.10;99.90;;;;;;5071063;28;20056;-70
2024/03/14 05:40:41;;;;;;;11.85;7.50;;;10.00;99.90;;;;;;5070707;28;20097;-69
2024/03/14 05:43:07;;;;;;;11.60;7.57;;;10.00;99.90;;;;;;5070731;28;20089;-69
2024/03/14 05:45:34;;;;;;;14.43;8.75;;;9.90;99.90;;;;;;5070534;28;20195;-68
2024/03/14 05:48:11;;;;;;;12.35;7.03;;;10.00;99.90;;;;;;5069934;28;20542;-67
2024/03/14 05:50:37;;;;;;;18.77;7.00;;;10.00;99.90;;;;;;5068787;28;20032;-69
2024/03/14 05:53:03;;;;;;;10.05;7.05;;;10.00;99.90;;;;;;5067484;28;20515;-69
2024/03/14 05:55:32;;;;;;;8.57;6.65;;;10.00;99.90;;;;;;5051847;28;20368;-70
2024/03/14 05:57:57;;;;;;;14.20;7.78;;;10.00;99.90;;;;;;5051946;28;20170;-69
2024/03/14 06:00:24;;;;;;;12.98;7.88;;;10.00;99.90;;;;;;5048667;28;20119;-69
2024/03/14 06:02:50;;;;;;;12.38;7.93;;;9.90;99.90;;;;;;5071483;28;20426;-69
2024/03/14 06:05:15;;;;;;;14.25;8.55;;;10.00;99.90;;;;;;5068539;28;20459;-69
2024/03/14 06:07:41;;;;;;;13.95;7.10;;;10.00;99.90;;;;;;5069496;28;20173;-72
2024/03/14 06:10:09;;;;;;;14.13;7.18;;;10.00;99.90;;;;;;5051736;28;20090;-70
2024/03/14 06:12:37;;;;;;;12.75;6.78;;;10.10;99.90;;;;;;5067395;28;20019;-70
2024/03/14 06:15:03;;;;;;;10.38;7.07;;;10.00;99.90;;;;;;5070157;28;20008;-70
2024/03/14 06:17:29;;;;;;;13.35;7.28;;;10.10;99.90;;;;;;5069974;28;20035;-71
2024/03/14 06:19:57;;;;;;;13.93;7.25;;;10.00;99.90;;;;;;5070358;28;20021;-73
2024/03/14 06:22:22;;;;;;;10.38;6.22;;;10.10;99.90;;;;;;5069420;28;20025;-69
2024/03/14 06:24:48;;;;;;;9.68;7.63;;;10.10;99.90;;;;;;5070136;28;20028;-69
2024/03/14 06:27:14;;;;;;;12.27;8.07;;;10.00;99.90;;;;;;5069905;28;20051;-67
2024/03/14 06:29:41;;;;;;;12.60;7.80;;;10.00;99.90;;;;;;5070249;28;20107;-66
2024/03/14 06:32:07;;;;;;;13.07;6.85;;;10.10;99.90;;;;;;5069987;28;20024;-67
2024/03/14 06:34:33;;;;;;;8.70;6.85;;;10.10;99.90;;;;;;5070060;28;20104;-69
2024/03/14 06:36:59;;;;;;;15.73;7.07;;;10.10;99.90;;;;;;5071876;28;20017;-78
2024/03/14 06:39:26;;;;;;;8.82;7.13;;;10.40;99.90;;;;;;5053333;28;20025;-75
2024/03/14 06:41:52;;;;;;;11.77;7.95;;;10.70;99.90;;;;;;5052109;28;20078;-75
2024/03/14 06:44:18;;;;;;;10.57;6.95;;;10.70;99.90;;;;;;5069603;28;20519;-72
2024/03/14 06:46:44;;;;;;;15.50;6.97;;;10.60;99.90;;;;;;5070372;28;20025;-74
2024/03/14 06:49:13;;;;;;;12.00;7.68;;;10.50;99.90;;;;;;5052244;28;20029;-73
2024/03/14 06:51:42;;;;;;;11.55;7.53;;;10.30;99.90;;;;;;5071596;28;20028;-72
2024/03/14 06:54:08;;;;;;;12.57;7.97;;;10.30;99.90;;;;;;5060025;28;20471;-73
2024/03/14 06:56:35;;;;;;;13.73;7.35;;;10.20;99.90;;;;;;5078331;28;20032;-74
2024/03/14 06:59:12;;;;;;;10.82;7.28;;;10.30;99.90;;;;;;5074992;28;20017;-72
2024/03/14 07:01:38;;;;;;;11.38;7.47;;;10.30;99.90;;;;;;5074118;28;20122;-72
2024/03/14 07:04:04;;;;;;;10.68;7.57;;;10.30;99.90;;;;;;5074942;28;20051;-71
2024/03/14 07:06:31;;;;;;;10.82;7.60;;;10.40;99.90;;;;;;5076430;28;20094;-73
2024/03/14 07:08:58;;;;;;;13.02;7.50;;;10.40;99.90;;;;;;5078100;28;20017;-70
2024/03/14 07:11:25;;;;;;;14.63;7.65;;;10.40;99.90;;;;;;5078818;28;20040;-71
2024/03/14 07:13:54;;;;;;;10.65;7.47;;;10.40;99.90;;;;;;5062097;28;20048;-69
2024/03/14 07:16:22;;;;;;;12.25;6.78;;;10.50;99.90;;;;;;5060046;28;20082;-73
2024/03/14 07:18:49;;;;;;;13.95;6.90;;;10.50;99.90;;;;;;5073049;28;20020;-69
2024/03/14 07:21:16;;;;;;;15.40;7.55;;;10.60;99.90;;;;;;5075272;28;20512;-68
2024/03/14 07:23:43;;;;;;;11.88;7.18;;;10.70;99.90;;;;;;5082899;28;20062;-69
2024/03/14 07:26:09;;;;;;;15.65;6.32;;;10.70;99.90;;;;;;5069136;28;20708;-68
2024/03/14 07:28:34;;;;;;;10.20;7.53;;;10.80;99.90;;;;;;5072836;28;20056;-69
2024/03/14 07:31:00;;;;;;;13.73;7.40;;;10.70;99.90;;;;;;5072151;28;20059;-68
2024/03/14 07:33:26;;;;;;;14.13;7.22;;;10.80;99.90;;;;;;5072331;28;20081;-69
2024/03/14 07:35:53;;;;;;;16.05;8.40;;;10.90;99.90;;;;;;5072542;28;20060;-68
2024/03/14 07:38:21;;;;;;;9.95;6.93;;;11.10;99.90;;;;;;5071614;28;20021;-68
2024/03/14 07:40:46;;;;;;;12.25;7.22;;;11.10;99.90;;;;;;5070702;28;20079;-69
2024/03/14 07:43:12;;;;;;;11.40;7.78;;;11.20;99.90;;;;;;5054705;28;20506;-68
2024/03/14 07:45:38;;;;;;;15.35;6.68;;;11.20;99.90;;;;;;5072447;28;20495;-68
2024/03/14 07:48:04;;;;;;;11.48;7.25;;;11.20;99.90;;;;;;5072717;28;20453;-71
2024/03/14 07:50:30;;;;;;;10.13;7.05;;;11.30;99.90;;;;;;5072529;28;20462;-70
2024/03/14 07:52:56;;;;;;;15.98;6.47;;;11.30;99.90;;;;;;5072746;28;20065;-69
2024/03/14 07:55:22;;;;;;;14.63;7.63;;;11.40;99.90;;;;;;5072671;28;20130;-69
2024/03/14 07:57:48;;;;;;;14.77;8.20;;;11.60;99.90;;;;;;5072445;28;20020;-68
2024/03/14 08:00:15;;;;;;;9.18;6.60;;;11.70;99.90;;;;;;5054245;28;20040;-67
2024/03/14 08:02:42;;;;;;;10.52;6.30;;;11.90;99.90;;;;;;5071624;28;20020;-68
2024/03/14 08:05:08;;;;;;;10.43;7.10;;;12.00;99.90;;;;;;5077197;28;20027;-68
2024/03/14 08:07:34;;;;;;;15.95;6.82;;;12.20;99.90;;;;;;5071796;28;20033;-69
2024/03/14 08:10:00;;;;;;;14.65;6.82;;;12.60;99.90;;;;;;5054394;28;20093;-69
2024/03/14 08:12:33;;;;;;;14.07;6.82;;;12.90;99.90;;;;;;5071789;28;20029;-68
2024/03/14 08:15:05;;;;;;;9.50;7.03;;;13.00;99.90;;;;;;5072122;28;20016;-69
2024/03/14 08:17:31;;;;;;;10.23;6.20;;;13.20;99.90;;;;;;5072121;28;20103;-69
2024/03/14 08:19:56;;;;;;;19.58;6.40;;;13.40;99.90;;;;;;5071587;28;20103;-69
2024/03/14 08:22:24;;;;;;;8.35;5.53;;;13.60;99.90;;;;;;5071356;28;20390;-68
2024/03/14 08:24:52;;;;;;;13.13;6.82;;;13.50;99.90;;;;;;5072756;28;20210;-69
2024/03/14 08:27:19;;;;;;;9.30;6.30;;;13.60;99.90;;;;;;5071175;28;20020;-68
2024/03/14 08:29:46;;;;;;;15.80;7.25;;;14.00;99.90;;;;;;5083333;28;20017;-68
2024/03/14 08:32:15;;;;;;;8.52;5.93;;;14.30;99.90;;;;;;5072308;28;20019;-68
2024/03/14 08:34:40;;;;;;;9.68;6.30;;;14.20;99.90;;;;;;5085283;28;20024;-70
2024/03/14 08:37:06;;;;;;;12.55;6.45;;;14.30;99.90;;;;;;5082923;28;20080;-68
2024/03/14 08:39:31;;;;;;;11.20;6.38;;;14.30;99.90;;;;;;5086208;28;20028;-68
2024/03/14 08:41:58;;;;;;;8.10;5.93;;;14.20;99.90;;;;;;5074193;28;20052;-69
2024/03/14 08:44:26;;;;;;;15.65;8.45;;;14.60;99.90;;;;;;5086266;28;20025;-68
2024/03/14 08:46:52;;;;;;;10.25;6.40;;;14.90;99.90;;;;;;5079707;28;20105;-67
2024/03/14 08:49:18;;;;;;;16.58;6.93;;;15.10;99.90;;;;;;5060324;28;20039;-68
2024/03/14 08:51:45;;;;;;;11.95;5.85;;;15.20;99.90;;;;;;5067969;28;20024;-69
2024/03/14 08:56:46;;;;;;;13.43;6.53;;;15.60;99.90;;;;;;5085050;28;20087;-69
2024/03/14 08:59:13;;;;;;;13.70;6.20;;;15.50;99.90;;;;;;5064795;28;20024;-70
2024/03/14 09:01:44;;;;;;;10.63;5.90;;;15.60;99.90;;;;;;5077578;28;20120;-68
2024/03/14 09:04:14;;;;;;;14.10;6.40;;;15.80;99.90;;;;;;5086288;28;20051;-70
2024/03/14 09:06:42;;;;;;;10.80;5.55;;;16.20;99.90;;;;;;5069194;28;20099;-67
2024/03/14 09:09:08;;;;;;;12.23;6.18;;;16.20;99.90;;;;;;5077203;28;20452;-67
2024/03/14 09:11:34;;;;;;;9.32;6.25;;;16.50;99.90;;;;;;5081574;28;20047;-67
2024/03/14 09:14:00;;;;;;;11.25;6.50;;;16.60;99.90;;;;;;5073708;28;20487;-69
2024/03/14 09:16:26;;;;;;;9.55;6.13;;;16.80;99.90;;;;;;5070283;28;20032;-69
2024/03/14 09:18:52;;;;;;;7.55;5.60;;;17.20;99.90;;;;;;5069905;28;20078;-68
2024/03/14 09:21:19;;;;;;;10.52;6.03;;;17.20;99.90;;;;;;5051740;28;20482;-67
2024/03/14 09:23:45;;;;;;;9.85;5.90;;;17.00;99.90;;;;;;5068817;28;20139;-68
2024/03/14 09:26:11;;;;;;;12.93;6.50;;;16.60;99.90;;;;;;5071462;28;20531;-68
2024/03/14 09:28:43;;;;;;;9.93;6.18;;;16.80;99.90;;;;;;5071626;28;20024;-68
2024/03/14 09:31:09;;;;;;;13.27;6.57;;;17.10;99.90;;;;;;5071128;28;20090;-70
2024/03/14 09:33:37;;;;;;;8.00;6.30;;;17.30;99.90;;;;;;5052189;28;20463;-70
2024/03/14 09:36:04;;;;;;;18.08;6.97;;;17.50;99.90;;;;;;5074147;28;20470;-70
2024/03/14 09:38:32;;;;;;;7.97;5.38;;;17.30;99.90;;;;;;5071037;28;20078;-69
2024/03/14 09:40:57;;;;;;;13.65;6.30;;;17.40;99.90;;;;;;5070053;28;20469;-69
2024/03/14 09:43:23;;;;;;;11.00;6.10;;;17.90;99.90;;;;;;5071112;28;20120;-69
2024/03/14 09:45:54;;;;;;;8.70;5.82;;;18.40;99.90;;;;;;5071163;28;20098;-69
2024/03/14 09:48:21;;;;;;;10.75;6.22;;;18.30;99.90;;;;;;5071143;28;20547;-68
2024/03/14 09:50:51;;;;;;;10.27;5.68;;;18.00;99.90;;;;;;5067280;28;20031;-68
2024/03/14 09:53:21;;;;;;;10.60;6.45;;;18.80;99.90;;;;;;5069772;28;20069;-68
2024/03/14 09:55:47;;;;;;;11.13;5.55;;;18.70;99.90;;;;;;5069498;28;20039;-70
2024/03/14 09:58:14;;;;;;;13.15;5.45;;;18.70;99.90;;;;;;5068469;28;20024;-69
2024/03/14 10:00:40;;;;;;;8.13;4.70;;;18.50;99.90;;;;;;5081337;28;20028;-69
2024/03/14 10:03:07;;;;;;;9.57;5.18;;;18.90;99.90;;;;;;5056683;28;20111;-67
2024/03/14 10:05:35;;;;;;;7.97;5.43;;;18.80;99.90;;;;;;5082856;28;20028;-68
2024/03/14 10:08:02;;;;;;;8.70;5.93;;;18.40;99.90;;;;;;5075363;28;20474;-68
2024/03/14 10:10:31;;;;;;;7.53;4.38;;;18.20;99.90;;;;;;5074245;28;20032;-67
2024/03/14 10:12:57;;;;;;;7.60;4.60;;;17.70;99.90;;;;;;5054479;28;20036;-68
2024/03/14 10:15:23;;;;;;;8.15;5.10;;;17.70;99.90;;;;;;5068621;28;20025;-67
2024/03/14 10:17:51;;;;;;;12.95;4.95;;;17.50;99.90;;;;;;5056519;28;20020;-68
2024/03/14 10:20:17;;;;;;;7.85;5.68;;;17.40;99.90;;;;;;5080229;28;20082;-68
2024/03/14 10:22:43;;;;;;;8.50;5.13;;;17.00;99.90;;;;;;5075916;28;20024;-69
2024/03/14 10:25:23;;;;;;;9.32;5.13;;;16.50;99.90;;;;;;5067663;28;20494;-67
2024/03/14 10:27:51;;;;;;;10.35;5.57;;;16.50;99.90;;;;;;5074177;28;20035;-68
2024/03/14 10:30:18;;;;;;;8.85;5.28;;;16.70;99.90;;;;;;5066450;28;20040;-68
2024/03/14 10:32:46;;;;;;;10.43;5.15;;;16.90;99.90;;;;;;5068397;28;20115;-68
2024/03/14 10:35:14;;;;;;;8.85;4.75;;;17.00;99.90;;;;;;5076884;28;20070;-68
2024/03/14 10:37:41;;;;;;;10.55;4.50;;;17.10;99.90;;;;;;5058577;28;20016;-66
2024/03/14 10:40:18;;;;;;;7.85;4.60;;;16.80;99.90;;;;;;5080804;28;20111;-68
2024/03/14 10:42:48;;;;;;;10.35;4.68;;;17.20;99.90;;;;;;5059081;28;20028;-66
2024/03/14 10:45:16;;;;;;;10.02;5.05;;;17.50;99.90;;;;;;5084910;28;20526;-67
2024/03/14 10:47:42;;;;;;;7.57;4.78;;;17.60;99.90;;;;;;5089205;28;20032;-67
2024/03/14 10:50:16;;;;;;;6.28;4.82;;;17.30;99.90;;;;;;5080609;28;20397;-67
2024/03/14 10:52:45;;;;;;;8.98;4.43;;;17.70;99.90;;;;;;5076609;28;20529;-69
2024/03/14 10:55:14;;;;;;;7.53;4.55;;;18.00;99.90;;;;;;5088976;28;20035;-67
2024/03/14 10:57:41;;;;;;;9.65;5.18;;;17.50;99.90;;;;;;5076868;28;20044;-66
2024/03/14 11:00:14;;;;;;;4.55;3.95;;;17.50;99.90;;;;;;5082036;28;20040;-68
2024/03/14 11:02:42;;;;;;;4.05;3.50;;;17.60;99.90;;;;;;5067241;28;20024;-68
2024/03/14 11:05:10;;;;;;;5.60;3.95;;;18.20;99.90;;;;;;5075340;28;20766;-67
2024/03/14 11:07:38;;;;;;;6.65;4.40;;;18.40;99.90;;;;;;5090387;28;20091;-68
2024/03/14 11:10:12;;;;;;;8.40;4.75;;;18.30;99.90;;;;;;5080875;28;20035;-67
2024/03/14 11:12:39;;;;;;;9.73;4.05;;;18.30;99.90;;;;;;5081697;28;20467;-66
2024/03/14 11:15:11;;;;;;;9.93;4.65;;;18.30;99.90;;;;;;5054771;28;20025;-67
2024/03/14 11:17:42;;;;;;;5.03;3.67;;;18.30;99.90;;;;;;5071273;28;20125;-68
2024/03/14 11:20:18;;;;;;;5.18;4.32;;;18.40;99.90;;;;;;5073001;28;20029;-68
2024/03/14 11:22:45;;;;;;;7.45;4.22;;;18.80;99.90;;;;;;5072698;28;20017;-68
2024/03/14 11:25:17;;;;;;;5.32;4.20;;;18.40;99.90;;;;;;5072582;28;20107;-67
2024/03/14 11:27:45;;;;;;;6.68;4.75;;;18.40;99.90;;;;;;5072734;28;20355;-67
2024/03/14 11:30:19;;;;;;;5.15;4.63;;;18.30;99.90;;;;;;5072556;28;20398;-68
2024/03/14 11:32:57;;;;;;;8.32;4.40;;;18.10;99.90;;;;;;5073295;28;20490;-68
2024/03/14 11:35:45;;;;;;;7.15;4.60;;;17.90;99.90;;;;;;5055152;28;20376;-68
2024/03/14 11:38:19;;;;;;;5.75;4.35;;;17.50;99.90;;;;;;5054129;28;20035;-67
2024/03/14 11:40:46;;;;;;;6.78;4.25;;;17.20;99.90;;;;;;5072780;28;20043;-68
2024/03/14 11:43:25;;;;;;;5.38;4.05;;;17.20;99.90;;;;;;5072785;28;20024;-69
2024/03/14 11:46:00;;;;;;;5.72;3.60;;;17.30;99.90;;;;;;5054744;28;20410;-68
2024/03/14 11:48:30;;;;;;;4.20;3.80;;;17.20;99.90;;;;;;5072406;28;20025;-69
2024/03/14 11:50:58;;;;;;;6.43;3.50;;;17.40;99.90;;;;;;5072016;28;20552;-68
2024/03/14 11:53:27;;;;;;;6.32;3.42;;;17.70;99.90;;;;;;5072034;28;20036;-67
2024/03/14 11:55:53;;;;;;;5.45;3.38;;;17.90;99.90;;;;;;5072107;28;20111;-68
2024/03/14 11:58:23;;;;;;;7.53;3.30;;;17.90;99.90;;;;;;5072179;28;20072;-67
2024/03/14 12:00:53;;;;;;;5.22;2.90;;;18.20;99.90;;;;;;5071591;28;20490;-68
2024/03/14 12:03:22;;;;;;;7.80;3.60;;;18.20;99.90;;;;;;5071773;28;20025;-67
2024/03/14 12:05:53;;;;;;;5.80;3.45;;;18.20;99.90;;;;;;5071616;28;20429;-69
2024/03/14 12:08:18;;;;;;;10.75;3.63;;;18.40;99.90;;;;;;5071875;28;20153;-70
2024/03/14 12:10:45;;;;;;;6.18;3.40;;;18.40;99.90;;;;;;5071772;28;20036;-68
2024/03/14 12:13:19;;;;;;;5.22;3.30;;;18.80;99.90;;;;;;5072455;28;20034;-68
2024/03/14 12:15:45;;;;;;;4.40;3.10;;;19.20;99.90;;;;;;5073165;28;20020;-69
2024/03/14 12:18:11;;;;;;;5.10;3.35;;;19.10;99.90;;;;;;5072561;28;20048;-68
2024/03/14 12:20:46;;;;;;;4.55;2.65;;;19.00;99.90;;;;;;5071653;28;20056;-69
2024/03/14 12:23:11;;;;;;;4.97;2.25;;;19.30;99.90;;;;;;5071954;28;20033;-69
2024/03/14 12:25:37;;;;;;;3.83;2.22;;;19.20;99.90;;;;;;5071894;28;20035;-68
2024/03/14 12:28:03;;;;;;;6.47;3.05;;;19.20;99.90;;;;;;5072078;28;20486;-69
2024/03/14 12:30:32;;;;;;;5.75;2.67;;;19.30;99.90;;;;;;5052994;28;20029;-67
2024/03/14 12:33:01;;;;;;;3.75;2.67;;;19.50;99.90;;;;;;5053868;28;20035;-67
2024/03/14 12:35:27;;;;;;;6.57;2.65;;;19.40;99.90;;;;;;5051949;28;20107;-69
2024/03/14 12:37:54;;;;;;;3.67;2.25;;;19.30;99.90;;;;;;5053712;28;20078;-68
2024/03/14 12:40:23;;;;;;;2.80;2.33;;;19.60;99.90;;;;;;5071755;28;20094;-69
2024/03/14 12:42:50;;;;;;;3.28;2.45;;;19.80;99.90;;;;;;5071600;28;20028;-68
2024/03/14 12:45:16;;;;;;;9.93;2.90;;;19.70;99.70;;;;;;5071473;28;20467;-70
2024/03/14 12:47:44;;;;;;;3.75;2.20;;;19.60;99.70;;;;;;5071290;28;20090;-70